Terminal Aerodrome Forecast
Issued by NWS Charleston, SC

Home | Current Version | Previous Version | Text Only | Print | Product List | Glossary On
Versions: 1 2 3 4 5 6 7 8 9 10 11 12 13 14 15 16 17 18 19 20 21 22 23 24 25 26 27 28 29
000
FTUS42 KCHS 080934 AAA
TAFSAV
TAF AMD
KSAV 080934Z 0810/0906 28004KT P6SM SCT025
      TEMPO 0810/0812 BKN025
     FM081330 27006KT P6SM SCT030
     FM082000 31010KT P6SM SCT250=

USA.gov is the U.S. government's official web portal to all federal, state and local government web resources and services.